sensor_id;sensor_type;location;lat;lon;timestamp;pressure;altitude;pressure_sealevel;temperature;humidity
50302;BME280;36550;50.472;19.744;2023-08-24T00:00:15;98373.02;;;15.73;79.11
50302;BME280;36550;50.472;19.744;2023-08-24T00:03:00;98369.98;;;15.74;79.22
50302;BME280;36550;50.472;19.744;2023-08-24T00:05:47;98367.32;;;15.74;79.07
50302;BME280;36550;50.472;19.744;2023-08-24T00:08:31;98365.31;;;15.69;78.87
50302;BME280;36550;50.472;19.744;2023-08-24T00:11:16;98363.23;;;15.64;78.86
50302;BME280;36550;50.472;19.744;2023-08-24T00:14:00;98363.86;;;15.60;78.99
50302;BME280;36550;50.472;19.744;2023-08-24T00:16:44;98365.63;;;15.56;79.08
50302;BME280;36550;50.472;19.744;2023-08-24T00:19:29;98369.03;;;15.49;78.81
50302;BME280;36550;50.472;19.744;2023-08-24T00:22:13;98373.35;;;15.45;78.81
50302;BME280;36550;50.472;19.744;2023-08-24T00:24:57;98381.16;;;15.41;78.86
50302;BME280;36550;50.472;19.744;2023-08-24T00:27:41;98382.84;;;15.38;78.88
50302;BME280;36550;50.472;19.744;2023-08-24T00:30:25;98384.02;;;15.31;78.77
50302;BME280;36550;50.472;19.744;2023-08-24T00:33:09;98384.23;;;15.26;78.89
50302;BME280;36550;50.472;19.744;2023-08-24T00:35:53;98384.05;;;15.19;78.96
50302;BME280;36550;50.472;19.744;2023-08-24T00:38:37;98385.84;;;15.12;78.98
50302;BME280;36550;50.472;19.744;2023-08-24T00:41:21;98384.56;;;15.08;78.92
50302;BME280;36550;50.472;19.744;2023-08-24T00:44:06;98382.95;;;15.05;79.06
50302;BME280;36550;50.472;19.744;2023-08-24T00:46:51;98383.05;;;14.98;78.92
50302;BME280;36550;50.472;19.744;2023-08-24T00:49:36;98385.31;;;14.95;79.06
50302;BME280;36550;50.472;19.744;2023-08-24T00:52:21;98384.72;;;14.93;79.34
50302;BME280;36550;50.472;19.744;2023-08-24T00:55:06;98386.67;;;14.89;79.35
50302;BME280;36550;50.472;19.744;2023-08-24T00:57:51;98384.13;;;14.85;79.37
50302;BME280;36550;50.472;19.744;2023-08-24T01:00:35;98381.54;;;14.85;79.64
50302;BME280;36550;50.472;19.744;2023-08-24T01:03:22;98384.92;;;14.87;79.73
50302;BME280;36550;50.472;19.744;2023-08-24T01:06:07;98385.66;;;14.85;79.61
50302;BME280;36550;50.472;19.744;2023-08-24T01:08:51;98388.30;;;14.85;79.72
50302;BME280;36550;50.472;19.744;2023-08-24T01:17:47;98379.38;;;14.87;80.00
50302;BME280;36550;50.472;19.744;2023-08-24T01:20:34;98379.80;;;14.87;80.07
50302;BME280;36550;50.472;19.744;2023-08-24T01:23:48;98375.78;;;14.87;79.84
50302;BME280;36550;50.472;19.744;2023-08-24T01:26:37;98375.91;;;14.83;79.81
50302;BME280;36550;50.472;19.744;2023-08-24T01:29:22;98375.80;;;14.82;79.74
50302;BME280;36550;50.472;19.744;2023-08-24T01:32:10;98377.60;;;14.80;79.83
50302;BME280;36550;50.472;19.744;2023-08-24T01:34:55;98377.03;;;14.77;79.85
50302;BME280;36550;50.472;19.744;2023-08-24T01:37:39;98379.02;;;14.73;79.83
50302;BME280;36550;50.472;19.744;2023-08-24T01:40:28;98375.55;;;14.71;79.94
50302;BME280;36550;50.472;19.744;2023-08-24T01:43:14;98377.98;;;14.70;80.03
50302;BME280;36550;50.472;19.744;2023-08-24T01:45:59;98375.02;;;14.68;79.91
50302;BME280;36550;50.472;19.744;2023-08-24T01:48:44;98375.71;;;14.63;79.76
50302;BME280;36550;50.472;19.744;2023-08-24T01:51:30;98378.05;;;14.59;79.84
50302;BME280;36550;50.472;19.744;2023-08-24T01:54:14;98375.82;;;14.56;80.05
50302;BME280;36550;50.472;19.744;2023-08-24T01:56:58;98375.80;;;14.53;79.94
50302;BME280;36550;50.472;19.744;2023-08-24T01:59:42;98372.65;;;14.49;80.14
50302;BME280;36550;50.472;19.744;2023-08-24T02:02:26;98368.39;;;14.46;80.05
50302;BME280;36550;50.472;19.744;2023-08-24T02:05:10;98368.00;;;14.43;79.92
50302;BME280;36550;50.472;19.744;2023-08-24T02:07:55;98366.19;;;14.41;79.85
50302;BME280;36550;50.472;19.744;2023-08-24T02:10:39;98366.31;;;14.37;79.85
50302;BME280;36550;50.472;19.744;2023-08-24T02:13:23;98368.68;;;14.37;80.11
50302;BME280;36550;50.472;19.744;2023-08-24T02:16:08;98367.21;;;14.32;80.19
50302;BME280;36550;50.472;19.744;2023-08-24T02:18:52;98361.23;;;14.30;80.26
50302;BME280;36550;50.472;19.744;2023-08-24T02:21:37;98361.70;;;14.23;80.12
50302;BME280;36550;50.472;19.744;2023-08-24T02:24:21;98359.52;;;14.17;80.15
50302;BME280;36550;50.472;19.744;2023-08-24T02:27:05;98356.23;;;14.17;80.44
50302;BME280;36550;50.472;19.744;2023-08-24T02:29:49;98356.08;;;14.17;80.51
50302;BME280;36550;50.472;19.744;2023-08-24T02:32:33;98357.92;;;14.16;80.35
50302;BME280;36550;50.472;19.744;2023-08-24T02:35:17;98353.59;;;14.11;80.24
50302;BME280;36550;50.472;19.744;2023-08-24T02:38:03;98349.97;;;14.07;80.27
50302;BME280;36550;50.472;19.744;2023-08-24T02:40:47;98346.07;;;14.02;80.35
50302;BME280;36550;50.472;19.744;2023-08-24T02:43:32;98341.88;;;13.96;80.24
50302;BME280;36550;50.472;19.744;2023-08-24T02:46:16;98344.53;;;13.93;80.44
50302;BME280;36550;50.472;19.744;2023-08-24T02:49:02;98344.27;;;13.93;80.74
50302;BME280;36550;50.472;19.744;2023-08-24T02:51:46;98348.75;;;13.93;80.44
50302;BME280;36550;50.472;19.744;2023-08-24T02:54:30;98352.04;;;13.89;80.47
50302;BME280;36550;50.472;19.744;2023-08-24T02:57:14;98352.09;;;13.88;80.53
50302;BME280;36550;50.472;19.744;2023-08-24T02:59:59;98354.54;;;13.86;80.53
50302;BME280;36550;50.472;19.744;2023-08-24T03:02:43;98351.83;;;13.83;80.68
50302;BME280;36550;50.472;19.744;2023-08-24T03:05:27;98349.02;;;13.82;80.81
50302;BME280;36550;50.472;19.744;2023-08-24T03:08:11;98349.65;;;13.82;81.14
50302;BME280;36550;50.472;19.744;2023-08-24T03:10:56;98344.38;;;13.82;81.01
50302;BME280;36550;50.472;19.744;2023-08-24T03:13:40;98348.09;;;13.83;81.08
50302;BME280;36550;50.472;19.744;2023-08-24T03:16:24;98349.33;;;13.81;80.86
50302;BME280;36550;50.472;19.744;2023-08-24T03:19:08;98348.45;;;13.79;80.83
50302;BME280;36550;50.472;19.744;2023-08-24T03:21:52;98348.89;;;13.75;80.90
50302;BME280;36550;50.472;19.744;2023-08-24T03:24:36;98352.05;;;13.71;80.77
50302;BME280;36550;50.472;19.744;2023-08-24T03:27:20;98352.36;;;13.66;81.02
50302;BME280;36550;50.472;19.744;2023-08-24T03:30:05;98346.98;;;13.65;81.08
50302;BME280;36550;50.472;19.744;2023-08-24T03:32:49;98349.33;;;13.68;81.15
50302;BME280;36550;50.472;19.744;2023-08-24T03:35:34;98349.52;;;13.71;81.48
50302;BME280;36550;50.472;19.744;2023-08-24T03:38:18;98352.82;;;13.74;81.44
50302;BME280;36550;50.472;19.744;2023-08-24T03:41:03;98352.36;;;13.74;81.27
50302;BME280;36550;50.472;19.744;2023-08-24T03:43:47;98352.94;;;13.75;81.49
50302;BME280;36550;50.472;19.744;2023-08-24T03:46:31;98353.59;;;13.72;81.30
50302;BME280;36550;50.472;19.744;2023-08-24T03:49:15;98355.55;;;13.67;81.11
50302;BME280;36550;50.472;19.744;2023-08-24T03:51:59;98355.24;;;13.65;81.22
50302;BME280;36550;50.472;19.744;2023-08-24T03:54:43;98355.42;;;13.62;81.11
50302;BME280;36550;50.472;19.744;2023-08-24T03:57:27;98356.21;;;13.61;80.99
50302;BME280;36550;50.472;19.744;2023-08-24T04:00:12;98355.80;;;13.62;81.15
50302;BME280;36550;50.472;19.744;2023-08-24T04:02:58;98355.31;;;13.60;81.08
50302;BME280;36550;50.472;19.744;2023-08-24T04:05:41;98353.88;;;13.60;81.10
50302;BME280;36550;50.472;19.744;2023-08-24T04:08:25;98353.53;;;13.62;81.35
50302;BME280;36550;50.472;19.744;2023-08-24T04:11:09;98354.52;;;13.65;81.39
50302;BME280;36550;50.472;19.744;2023-08-24T04:13:53;98354.09;;;13.70;81.67
50302;BME280;36550;50.472;19.744;2023-08-24T04:16:37;98351.66;;;13.73;81.73
50302;BME280;36550;50.472;19.744;2023-08-24T04:19:21;98352.71;;;13.79;81.91
50302;BME280;36550;50.472;19.744;2023-08-24T04:22:05;98355.70;;;13.85;82.04
50302;BME280;36550;50.472;19.744;2023-08-24T04:24:49;98354.92;;;13.92;82.06
50302;BME280;36550;50.472;19.744;2023-08-24T04:27:33;98354.06;;;14.00;82.14
50302;BME280;36550;50.472;19.744;2023-08-24T04:30:18;98360.64;;;14.08;82.21
50302;BME280;36550;50.472;19.744;2023-08-24T04:33:02;98357.52;;;14.18;82.31
50302;BME280;36550;50.472;19.744;2023-08-24T04:35:48;98357.16;;;14.25;82.51
50302;BME280;36550;50.472;19.744;2023-08-24T04:38:33;98354.23;;;14.33;82.47
50302;BME280;36550;50.472;19.744;2023-08-24T04:41:17;98347.75;;;14.40;82.52
50302;BME280;36550;50.472;19.744;2023-08-24T04:44:01;98353.00;;;14.49;82.43
50302;BME280;36550;50.472;19.744;2023-08-24T04:46:44;98352.42;;;14.59;82.53
50302;BME280;36550;50.472;19.744;2023-08-24T04:49:30;98349.88;;;14.69;82.60
50302;BME280;36550;50.472;19.744;2023-08-24T04:52:14;98351.54;;;14.80;82.54
50302;BME280;36550;50.472;19.744;2023-08-24T04:54:58;98348.02;;;14.89;82.45
50302;BME280;36550;50.472;19.744;2023-08-24T04:57:42;98344.20;;;14.96;82.33
50302;BME280;36550;50.472;19.744;2023-08-24T05:00:26;98346.79;;;15.05;82.45
50302;BME280;36550;50.472;19.744;2023-08-24T05:03:10;98345.79;;;15.13;82.52
50302;BME280;36550;50.472;19.744;2023-08-24T05:05:54;98352.77;;;15.22;82.52
50302;BME280;36550;50.472;19.744;2023-08-24T05:08:39;98354.18;;;15.30;82.50
50302;BME280;36550;50.472;19.744;2023-08-24T05:11:25;98352.48;;;15.39;82.56
50302;BME280;36550;50.472;19.744;2023-08-24T05:14:10;98346.34;;;15.50;82.52
50302;BME280;36550;50.472;19.744;2023-08-24T05:16:53;98348.52;;;15.61;82.55
50302;BME280;36550;50.472;19.744;2023-08-24T05:19:37;98350.70;;;15.75;82.54
50302;BME280;36550;50.472;19.744;2023-08-24T05:22:21;98352.14;;;15.88;82.64
50302;BME280;36550;50.472;19.744;2023-08-24T05:25:05;98353.86;;;16.02;82.70
50302;BME280;36550;50.472;19.744;2023-08-24T05:27:50;98354.41;;;16.13;82.72
50302;BME280;36550;50.472;19.744;2023-08-24T05:30:34;98355.13;;;16.24;82.68
50302;BME280;36550;50.472;19.744;2023-08-24T05:33:19;98355.77;;;16.34;82.76
50302;BME280;36550;50.472;19.744;2023-08-24T05:36:04;98357.32;;;16.47;82.77
50302;BME280;36550;50.472;19.744;2023-08-24T05:38:49;98359.45;;;16.59;82.75
50302;BME280;36550;50.472;19.744;2023-08-24T05:41:33;98357.55;;;16.71;82.83
50302;BME280;36550;50.472;19.744;2023-08-24T05:44:20;98359.62;;;16.83;82.71
50302;BME280;36550;50.472;19.744;2023-08-24T05:47:05;98360.04;;;16.96;82.74
50302;BME280;36550;50.472;19.744;2023-08-24T05:49:49;98356.90;;;17.09;82.70
50302;BME280;36550;50.472;19.744;2023-08-24T05:52:33;98360.16;;;17.23;82.79
50302;BME280;36550;50.472;19.744;2023-08-24T05:55:18;98358.06;;;17.38;82.57
50302;BME280;36550;50.472;19.744;2023-08-24T05:58:02;98355.73;;;17.51;82.48
50302;BME280;36550;50.472;19.744;2023-08-24T06:00:47;98352.44;;;17.66;82.28
50302;BME280;36550;50.472;19.744;2023-08-24T06:03:32;98348.45;;;17.81;82.14
50302;BME280;36550;50.472;19.744;2023-08-24T06:06:16;98349.71;;;17.97;82.28
50302;BME280;36550;50.472;19.744;2023-08-24T06:09:00;98353.87;;;18.13;82.27
50302;BME280;36550;50.472;19.744;2023-08-24T06:11:45;98352.27;;;18.30;82.30
50302;BME280;36550;50.472;19.744;2023-08-24T06:14:29;98355.79;;;18.44;82.09
50302;BME280;36550;50.472;19.744;2023-08-24T06:17:13;98357.05;;;18.59;81.91
50302;BME280;36550;50.472;19.744;2023-08-24T06:19:57;98353.89;;;18.77;81.66
50302;BME280;36550;50.472;19.744;2023-08-24T06:22:40;98359.45;;;18.95;81.29
50302;BME280;36550;50.472;19.744;2023-08-24T06:25:25;98358.78;;;19.14;80.97
50302;BME280;36550;50.472;19.744;2023-08-24T06:28:10;98359.60;;;19.33;80.27
50302;BME280;36550;50.472;19.744;2023-08-24T06:30:54;98354.89;;;19.49;79.41
50302;BME280;36550;50.472;19.744;2023-08-24T06:33:38;98354.66;;;19.65;79.35
50302;BME280;36550;50.472;19.744;2023-08-24T06:36:23;98349.02;;;19.79;78.92
50302;BME280;36550;50.472;19.744;2023-08-24T06:39:07;98351.58;;;19.96;79.32
50302;BME280;36550;50.472;19.744;2023-08-24T06:41:52;98348.92;;;20.10;79.33
50302;BME280;36550;50.472;19.744;2023-08-24T06:44:36;98347.56;;;20.23;78.79
50302;BME280;36550;50.472;19.744;2023-08-24T06:47:20;98351.52;;;20.37;78.63
50302;BME280;36550;50.472;19.744;2023-08-24T06:50:05;98356.61;;;20.49;78.01
50302;BME280;36550;50.472;19.744;2023-08-24T06:52:49;98358.37;;;20.61;78.07
50302;BME280;36550;50.472;19.744;2023-08-24T06:55:33;98360.05;;;20.70;77.98
50302;BME280;36550;50.472;19.744;2023-08-24T06:58:17;98356.55;;;20.78;77.67
50302;BME280;36550;50.472;19.744;2023-08-24T07:01:01;98359.00;;;20.88;77.38
50302;BME280;36550;50.472;19.744;2023-08-24T07:03:49;98358.67;;;20.98;77.03
50302;BME280;36550;50.472;19.744;2023-08-24T07:06:34;98361.73;;;21.06;76.80
50302;BME280;36550;50.472;19.744;2023-08-24T07:09:19;98363.41;;;21.13;76.47
50302;BME280;36550;50.472;19.744;2023-08-24T07:12:03;98360.70;;;21.21;75.45
50302;BME280;36550;50.472;19.744;2023-08-24T07:14:49;98364.89;;;21.34;75.16
50302;BME280;36550;50.472;19.744;2023-08-24T07:17:33;98362.33;;;21.47;74.83
50302;BME280;36550;50.472;19.744;2023-08-24T07:20:18;98366.08;;;21.57;74.02
50302;BME280;36550;50.472;19.744;2023-08-24T07:23:02;98365.36;;;21.67;74.17
50302;BME280;36550;50.472;19.744;2023-08-24T07:25:46;98367.40;;;21.74;73.97
50302;BME280;36550;50.472;19.744;2023-08-24T07:28:30;98367.89;;;21.81;73.48
50302;BME280;36550;50.472;19.744;2023-08-24T07:31:14;98364.85;;;21.89;73.24
50302;BME280;36550;50.472;19.744;2023-08-24T07:33:58;98359.73;;;21.96;72.21
50302;BME280;36550;50.472;19.744;2023-08-24T07:36:43;98362.17;;;22.02;71.17
50302;BME280;36550;50.472;19.744;2023-08-24T07:39:29;98362.42;;;22.08;67.75
50302;BME280;36550;50.472;19.744;2023-08-24T07:42:13;98355.09;;;22.15;68.23
50302;BME280;36550;50.472;19.744;2023-08-24T07:44:57;98353.77;;;22.22;67.28
50302;BME280;36550;50.472;19.744;2023-08-24T07:47:43;98359.52;;;22.29;68.32
50302;BME280;36550;50.472;19.744;2023-08-24T07:50:27;98362.52;;;22.33;67.81
50302;BME280;36550;50.472;19.744;2023-08-24T07:53:11;98360.73;;;22.37;67.63
50302;BME280;36550;50.472;19.744;2023-08-24T07:55:55;98357.80;;;22.40;67.61
50302;BME280;36550;50.472;19.744;2023-08-24T07:58:42;98359.05;;;22.44;67.34
50302;BME280;36550;50.472;19.744;2023-08-24T08:01:26;98359.34;;;22.48;66.71
50302;BME280;36550;50.472;19.744;2023-08-24T08:04:10;98362.48;;;22.53;66.14
50302;BME280;36550;50.472;19.744;2023-08-24T08:06:55;98358.98;;;22.58;65.90
50302;BME280;36550;50.472;19.744;2023-08-24T08:09:40;98358.14;;;22.64;65.37
50302;BME280;36550;50.472;19.744;2023-08-24T08:12:24;98357.85;;;22.67;65.25
50302;BME280;36550;50.472;19.744;2023-08-24T08:15:08;98359.27;;;22.69;63.40
50302;BME280;36550;50.472;19.744;2023-08-24T08:17:53;98354.04;;;22.72;64.14
50302;BME280;36550;50.472;19.744;2023-08-24T08:20:39;98358.01;;;22.75;64.10
50302;BME280;36550;50.472;19.744;2023-08-24T08:23:23;98358.56;;;22.80;61.75
50302;BME280;36550;50.472;19.744;2023-08-24T08:26:09;98358.41;;;22.84;62.65
50302;BME280;36550;50.472;19.744;2023-08-24T08:28:54;98358.23;;;22.89;62.88
50302;BME280;36550;50.472;19.744;2023-08-24T08:31:38;98361.40;;;22.93;63.17
50302;BME280;36550;50.472;19.744;2023-08-24T08:34:22;98361.95;;;22.96;62.34
50302;BME280;36550;50.472;19.744;2023-08-24T08:37:06;98359.45;;;23.00;62.29
50302;BME280;36550;50.472;19.744;2023-08-24T08:39:50;98357.06;;;23.04;62.44
50302;BME280;36550;50.472;19.744;2023-08-24T08:42:35;98358.94;;;23.11;62.57
50302;BME280;36550;50.472;19.744;2023-08-24T08:45:21;98358.69;;;23.18;62.41
50302;BME280;36550;50.472;19.744;2023-08-24T08:48:08;98359.88;;;23.27;62.54
50302;BME280;36550;50.472;19.744;2023-08-24T08:50:53;98361.09;;;23.33;58.79
50302;BME280;36550;50.472;19.744;2023-08-24T08:53:40;98362.11;;;23.38;56.03
50302;BME280;36550;50.472;19.744;2023-08-24T08:56:24;98360.94;;;23.44;57.37
50302;BME280;36550;50.472;19.744;2023-08-24T08:59:09;98354.52;;;23.48;57.26
50302;BME280;36550;50.472;19.744;2023-08-24T09:01:57;98351.55;;;23.48;56.04
50302;BME280;36550;50.472;19.744;2023-08-24T09:04:45;98346.70;;;23.49;57.50
50302;BME280;36550;50.472;19.744;2023-08-24T09:07:30;98341.09;;;23.49;55.79
50302;BME280;36550;50.472;19.744;2023-08-24T09:10:14;98350.76;;;23.50;55.86
50302;BME280;36550;50.472;19.744;2023-08-24T09:12:58;98349.45;;;23.51;56.93
50302;BME280;36550;50.472;19.744;2023-08-24T09:15:42;98352.80;;;23.50;56.20
50302;BME280;36550;50.472;19.744;2023-08-24T09:18:36;98348.73;;;23.52;54.81
50302;BME280;36550;50.472;19.744;2023-08-24T09:21:24;98342.09;;;23.55;52.43
50302;BME280;36550;50.472;19.744;2023-08-24T09:24:10;98337.23;;;23.58;53.39
50302;BME280;36550;50.472;19.744;2023-08-24T09:26:55;98337.15;;;23.61;53.23
50302;BME280;36550;50.472;19.744;2023-08-24T09:29:39;98333.34;;;23.63;50.16
50302;BME280;36550;50.472;19.744;2023-08-24T09:32:24;98332.62;;;23.66;50.81
50302;BME280;36550;50.472;19.744;2023-08-24T09:35:11;98336.34;;;23.70;50.85
50302;BME280;36550;50.472;19.744;2023-08-24T09:37:55;98336.06;;;23.73;52.60
50302;BME280;36550;50.472;19.744;2023-08-24T09:40:44;98335.81;;;23.74;53.62
50302;BME280;36550;50.472;19.744;2023-08-24T09:43:31;98337.33;;;23.75;51.91
50302;BME280;36550;50.472;19.744;2023-08-24T09:46:18;98337.48;;;23.80;50.62
50302;BME280;36550;50.472;19.744;2023-08-24T09:49:05;98335.95;;;23.83;50.71
50302;BME280;36550;50.472;19.744;2023-08-24T09:51:50;98335.05;;;23.87;48.97
50302;BME280;36550;50.472;19.744;2023-08-24T09:54:37;98334.16;;;23.89;50.51
50302;BME280;36550;50.472;19.744;2023-08-24T09:57:21;98332.84;;;23.90;50.49
50302;BME280;36550;50.472;19.744;2023-08-24T10:00:07;98335.65;;;23.93;51.19
50302;BME280;36550;50.472;19.744;2023-08-24T10:02:55;98334.95;;;23.96;47.78
50302;BME280;36550;50.472;19.744;2023-08-24T10:05:39;98335.59;;;24.02;47.22
50302;BME280;36550;50.472;19.744;2023-08-24T10:08:29;98332.20;;;24.05;46.14
50302;BME280;36550;50.472;19.744;2023-08-24T10:11:22;98328.25;;;24.10;48.94
50302;BME280;36550;50.472;19.744;2023-08-24T10:17:15;98327.65;;;24.15;49.08
50302;BME280;36550;50.472;19.744;2023-08-24T10:20:00;98332.28;;;24.23;49.84
50302;BME280;36550;50.472;19.744;2023-08-24T10:22:46;98333.10;;;24.28;49.53
50302;BME280;36550;50.472;19.744;2023-08-24T10:25:30;98326.44;;;24.33;50.63
50302;BME280;36550;50.472;19.744;2023-08-24T10:28:14;98315.80;;;24.35;48.64
50302;BME280;36550;50.472;19.744;2023-08-24T10:31:01;98318.04;;;24.37;46.54
50302;BME280;36550;50.472;19.744;2023-08-24T10:33:46;98317.50;;;24.39;47.03
50302;BME280;36550;50.472;19.744;2023-08-24T10:36:31;98317.84;;;24.40;46.45
50302;BME280;36550;50.472;19.744;2023-08-24T10:39:15;98314.08;;;24.44;47.02
50302;BME280;36550;50.472;19.744;2023-08-24T10:42:00;98309.41;;;24.46;48.73
50302;BME280;36550;50.472;19.744;2023-08-24T10:44:47;98306.55;;;24.45;46.67
50302;BME280;36550;50.472;19.744;2023-08-24T10:47:31;98299.91;;;24.47;46.57
50302;BME280;36550;50.472;19.744;2023-08-24T10:50:28;98304.07;;;24.50;48.52
50302;BME280;36550;50.472;19.744;2023-08-24T10:53:37;98304.41;;;24.50;47.45
50302;BME280;36550;50.472;19.744;2023-08-24T10:56:30;98303.52;;;24.56;47.07
50302;BME280;36550;50.472;19.744;2023-08-24T10:59:15;98303.41;;;24.59;46.48
50302;BME280;36550;50.472;19.744;2023-08-24T11:02:00;98298.10;;;24.64;46.52
50302;BME280;36550;50.472;19.744;2023-08-24T11:05:04;98297.39;;;24.69;47.44
50302;BME280;36550;50.472;19.744;2023-08-24T11:07:58;98296.71;;;24.73;47.78
50302;BME280;36550;50.472;19.744;2023-08-24T11:13:27;98296.08;;;24.76;46.66
50302;BME280;36550;50.472;19.744;2023-08-24T11:16:41;98294.02;;;24.78;46.16
50302;BME280;36550;50.472;19.744;2023-08-24T11:19:25;98294.85;;;24.82;46.38
50302;BME280;36550;50.472;19.744;2023-08-24T11:22:09;98291.39;;;24.88;47.65
50302;BME280;36550;50.472;19.744;2023-08-24T11:24:53;98285.02;;;24.89;44.17
50302;BME280;36550;50.472;19.744;2023-08-24T11:27:38;98282.64;;;24.89;46.47
50302;BME280;36550;50.472;19.744;2023-08-24T11:30:22;98282.76;;;24.92;47.20
50302;BME280;36550;50.472;19.744;2023-08-24T11:33:06;98282.33;;;24.95;46.22
50302;BME280;36550;50.472;19.744;2023-08-24T11:35:52;98274.92;;;24.98;46.35
50302;BME280;36550;50.472;19.744;2023-08-24T11:38:41;98270.80;;;25.00;45.85
50302;BME280;36550;50.472;19.744;2023-08-24T11:41:26;98268.71;;;25.02;45.60
50302;BME280;36550;50.472;19.744;2023-08-24T11:44:10;98267.95;;;25.04;46.27
50302;BME280;36550;50.472;19.744;2023-08-24T11:46:58;98273.27;;;25.06;44.51
50302;BME280;36550;50.472;19.744;2023-08-24T11:49:42;98268.14;;;25.09;44.50
50302;BME280;36550;50.472;19.744;2023-08-24T11:52:27;98268.95;;;25.11;44.41
50302;BME280;36550;50.472;19.744;2023-08-24T11:55:11;98263.38;;;25.16;45.62
50302;BME280;36550;50.472;19.744;2023-08-24T11:57:56;98251.33;;;25.18;46.38
50302;BME280;36550;50.472;19.744;2023-08-24T12:00:40;98250.20;;;25.16;44.99
50302;BME280;36550;50.472;19.744;2023-08-24T12:03:25;98247.02;;;25.18;44.06
50302;BME280;36550;50.472;19.744;2023-08-24T12:06:11;98241.55;;;25.21;45.33
50302;BME280;36550;50.472;19.744;2023-08-24T12:08:57;98241.71;;;25.22;44.16
50302;BME280;36550;50.472;19.744;2023-08-24T12:11:41;98238.45;;;25.21;44.53
50302;BME280;36550;50.472;19.744;2023-08-24T12:14:25;98241.95;;;25.20;45.93
50302;BME280;36550;50.472;19.744;2023-08-24T12:17:10;98241.55;;;25.20;45.57
50302;BME280;36550;50.472;19.744;2023-08-24T12:19:59;98239.88;;;25.20;45.93
50302;BME280;36550;50.472;19.744;2023-08-24T12:22:44;98240.82;;;25.20;45.35
50302;BME280;36550;50.472;19.744;2023-08-24T12:25:29;98244.10;;;25.25;45.79
50302;BME280;36550;50.472;19.744;2023-08-24T12:28:14;98245.68;;;25.30;46.30
50302;BME280;36550;50.472;19.744;2023-08-24T12:31:00;98250.45;;;25.39;46.11
50302;BME280;36550;50.472;19.744;2023-08-24T12:33:59;98241.91;;;25.42;45.01
50302;BME280;36550;50.472;19.744;2023-08-24T12:36:44;98237.10;;;25.43;45.82
50302;BME280;36550;50.472;19.744;2023-08-24T12:39:34;98235.30;;;25.42;45.26
50302;BME280;36550;50.472;19.744;2023-08-24T12:42:18;98234.95;;;25.43;45.64
50302;BME280;36550;50.472;19.744;2023-08-24T12:45:04;98233.94;;;25.43;44.36
50302;BME280;36550;50.472;19.744;2023-08-24T12:47:49;98232.58;;;25.43;45.53
50302;BME280;36550;50.472;19.744;2023-08-24T12:50:38;98226.76;;;25.44;45.29
50302;BME280;36550;50.472;19.744;2023-08-24T12:53:22;98226.27;;;25.45;44.39
50302;BME280;36550;50.472;19.744;2023-08-24T12:56:06;98223.77;;;25.48;43.32
50302;BME280;36550;50.472;19.744;2023-08-24T12:58:50;98218.91;;;25.49;43.88
50302;BME280;36550;50.472;19.744;2023-08-24T13:01:34;98216.09;;;25.50;44.31
50302;BME280;36550;50.472;19.744;2023-08-24T13:04:18;98214.06;;;25.51;44.32
50302;BME280;36550;50.472;19.744;2023-08-24T13:07:02;98203.17;;;25.52;44.61
50302;BME280;36550;50.472;19.744;2023-08-24T13:09:46;98195.88;;;25.56;45.65
50302;BME280;36550;50.472;19.744;2023-08-24T13:12:30;98196.21;;;25.61;45.26
50302;BME280;36550;50.472;19.744;2023-08-24T13:15:14;98200.58;;;25.65;42.97
50302;BME280;36550;50.472;19.744;2023-08-24T13:17:59;98195.64;;;25.70;44.68
50302;BME280;36550;50.472;19.744;2023-08-24T13:20:43;98195.08;;;25.79;44.90
50302;BME280;36550;50.472;19.744;2023-08-24T13:23:27;98184.81;;;25.84;44.68
50302;BME280;36550;50.472;19.744;2023-08-24T13:26:19;98183.50;;;25.92;44.46
50302;BME280;36550;50.472;19.744;2023-08-24T13:29:03;98185.63;;;26.00;44.91
50302;BME280;36550;50.472;19.744;2023-08-24T13:31:48;98185.19;;;26.07;43.67
50302;BME280;36550;50.472;19.744;2023-08-24T13:34:32;98177.79;;;26.14;44.35
50302;BME280;36550;50.472;19.744;2023-08-24T13:37:17;98178.41;;;26.16;42.90
50302;BME280;36550;50.472;19.744;2023-08-24T13:40:01;98178.16;;;26.13;41.43
50302;BME280;36550;50.472;19.744;2023-08-24T13:42:45;98176.06;;;26.08;42.37
50302;BME280;36550;50.472;19.744;2023-08-24T13:45:30;98178.69;;;26.04;43.74
50302;BME280;36550;50.472;19.744;2023-08-24T13:48:14;98172.43;;;25.99;44.56
50302;BME280;36550;50.472;19.744;2023-08-24T13:51:00;98166.88;;;25.94;45.08
50302;BME280;36550;50.472;19.744;2023-08-24T13:53:44;98171.89;;;25.86;45.46
50302;BME280;36550;50.472;19.744;2023-08-24T13:56:28;98166.52;;;25.79;45.71
50302;BME280;36550;50.472;19.744;2023-08-24T13:59:13;98166.63;;;25.71;45.28
50302;BME280;36550;50.472;19.744;2023-08-24T14:01:57;98162.52;;;25.63;45.26
50302;BME280;36550;50.472;19.744;2023-08-24T14:04:41;98155.59;;;25.57;44.68
50302;BME280;36550;50.472;19.744;2023-08-24T14:07:25;98151.13;;;25.50;45.33
50302;BME280;36550;50.472;19.744;2023-08-24T14:10:09;98152.27;;;25.43;45.13
50302;BME280;36550;50.472;19.744;2023-08-24T14:12:53;98155.12;;;25.37;45.42
50302;BME280;36550;50.472;19.744;2023-08-24T14:15:37;98156.84;;;25.31;45.40
50302;BME280;36550;50.472;19.744;2023-08-24T14:18:22;98163.13;;;25.25;46.51
50302;BME280;36550;50.472;19.744;2023-08-24T14:21:06;98162.06;;;25.17;46.51
50302;BME280;36550;50.472;19.744;2023-08-24T14:23:50;98160.65;;;25.11;46.91
50302;BME280;36550;50.472;19.744;2023-08-24T14:26:34;98161.89;;;25.05;46.81
50302;BME280;36550;50.472;19.744;2023-08-24T14:29:18;98165.05;;;24.99;46.79
50302;BME280;36550;50.472;19.744;2023-08-24T14:32:02;98169.25;;;24.95;46.99
50302;BME280;36550;50.472;19.744;2023-08-24T14:34:48;98172.42;;;24.91;47.33